Time;durP1;ratioP1;P1;durP2;ratioP2;P2;SDS_P1;SDS_P2;PMS_P1;PMS_P2;Temp;Humidity;BMP_temperature;BMP_pressure;BME280_temperature;BME280_humidity;BME280_pressure;Samples;Min_cycle;Max_cycle;Signal;HPM_P1;HPM_P2
2022/08/18 00:00:03;;;;;;;;;;;21.00;55.20;;;;;;485100;244;1348;-74
2022/08/18 00:02:04;;;;;;;;;;;21.10;55.20;;;;;;484997;246;1195;-74
2022/08/18 00:04:06;;;;;;;;;;;21.10;55.30;;;;;;485033;246;1159;-74
2022/08/18 00:06:07;;;;;;;;;;;21.10;55.30;;;;;;485035;246;1237;-74
2022/08/18 00:08:08;;;;;;;;;;;21.10;55.20;;;;;;485021;246;1093;-74
2022/08/18 00:10:10;;;;;;;;;;;21.20;55.00;;;;;;485061;246;1251;-74
2022/08/18 00:12:11;;;;;;;;;;;21.30;54.90;;;;;;485078;246;1160;-74
2022/08/18 00:14:12;;;;;;;;;;;21.30;55.00;;;;;;484968;246;1167;-74
2022/08/18 00:16:14;;;;;;;;;;;21.30;54.90;;;;;;484979;246;2159;-74
2022/08/18 00:18:15;;;;;;;;;;;21.40;54.60;;;;;;484952;246;1175;-74
2022/08/18 00:20:16;;;;;;;;;;;21.50;54.50;;;;;;484987;246;1120;-74
2022/08/18 00:22:18;;;;;;;;;;;21.40;54.40;;;;;;485123;246;1232;-74
2022/08/18 00:24:19;;;;;;;;;;;21.50;54.50;;;;;;485051;246;1286;-74
2022/08/18 00:26:21;;;;;;;;;;;21.50;54.40;;;;;;485149;246;1300;-74
2022/08/18 00:28:22;;;;;;;;;;;21.60;54.30;;;;;;485102;246;1188;-74
2022/08/18 00:30:23;;;;;;;;;;;21.50;54.30;;;;;;485039;246;1521;-74
2022/08/18 00:32:25;;;;;;;;;;;21.60;54.30;;;;;;484926;246;1159;-74
2022/08/18 00:34:26;;;;;;;;;;;21.60;54.10;;;;;;485058;242;1129;-74
2022/08/18 00:36:27;;;;;;;;;;;21.60;54.10;;;;;;485037;246;2220;-74
2022/08/18 00:38:29;;;;;;;;;;;21.70;54.20;;;;;;485022;243;1122;-74
2022/08/18 00:40:30;;;;;;;;;;;21.60;54.10;;;;;;485026;244;1245;-74
2022/08/18 00:42:32;;;;;;;;;;;21.70;54.20;;;;;;485016;244;1161;-74
2022/08/18 00:44:33;;;;;;;;;;;21.60;54.10;;;;;;485086;246;1098;-74
2022/08/18 00:46:34;;;;;;;;;;;21.60;54.20;;;;;;485113;246;1038;-74
2022/08/18 00:48:36;;;;;;;;;;;21.60;54.30;;;;;;485102;246;1116;-74
2022/08/18 00:50:37;;;;;;;;;;;21.60;54.30;;;;;;485079;246;1093;-74
2022/08/18 00:52:38;;;;;;;;;;;21.70;54.30;;;;;;485106;246;1113;-74
2022/08/18 00:54:40;;;;;;;;;;;21.60;54.40;;;;;;485090;246;1187;-74
2022/08/18 00:56:41;;;;;;;;;;;21.60;54.30;;;;;;485103;246;2160;-74
2022/08/18 00:58:42;;;;;;;;;;;21.70;54.20;;;;;;485103;246;1271;-74
2022/08/18 01:00:44;;;;;;;;;;;21.70;54.00;;;;;;485092;246;1124;-74
2022/08/18 01:02:45;;;;;;;;;;;21.60;54.30;;;;;;485083;246;1143;-74
2022/08/18 01:04:46;;;;;;;;;;;21.60;54.30;;;;;;485093;246;1132;-74
2022/08/18 01:06:48;;;;;;;;;;;21.70;54.20;;;;;;485058;246;1050;-74
2022/08/18 01:08:49;;;;;;;;;;;21.70;54.20;;;;;;485125;246;1152;-74
2022/08/18 01:10:50;;;;;;;;;;;21.60;54.20;;;;;;485089;246;1026;-74
2022/08/18 01:12:52;;;;;;;;;;;21.60;54.30;;;;;;485142;246;1165;-74
2022/08/18 01:14:53;;;;;;;;;;;21.60;54.30;;;;;;485079;246;1032;-74
2022/08/18 01:21:52;;;;;;;;;;;21.60;54.40;;;;;;485055;246;1212;-74
2022/08/18 01:23:52;;;;;;;;;;;21.60;54.30;;;;;;485012;246;1365;-74
2022/08/18 01:26:00;;;;;;;;;;;21.60;54.30;;;;;;485026;246;1025;-74
2022/08/18 01:28:02;;;;;;;;;;;21.70;54.40;;;;;;485035;246;1182;-74
2022/08/18 01:30:02;;;;;;;;;;;21.60;54.40;;;;;;485041;246;1252;-74
2022/08/18 01:32:04;;;;;;;;;;;21.70;54.30;;;;;;485045;246;1161;-74
2022/08/18 01:34:05;;;;;;;;;;;21.60;54.20;;;;;;485003;246;1108;-74
2022/08/18 01:36:07;;;;;;;;;;;21.60;54.20;;;;;;484995;246;1167;-74
2022/08/18 01:38:08;;;;;;;;;;;21.60;54.30;;;;;;484998;246;2155;-74
2022/08/18 01:40:10;;;;;;;;;;;21.50;54.40;;;;;;484992;246;1115;-74
2022/08/18 01:42:11;;;;;;;;;;;21.50;54.40;;;;;;485002;246;1132;-74
2022/08/18 01:44:12;;;;;;;;;;;21.70;54.40;;;;;;485072;246;1085;-74
2022/08/18 01:46:14;;;;;;;;;;;21.70;54.20;;;;;;485058;246;1159;-74
2022/08/18 01:48:15;;;;;;;;;;;21.70;54.30;;;;;;485030;246;1093;-74
2022/08/18 01:50:16;;;;;;;;;;;21.60;54.30;;;;;;485100;244;1171;-74
2022/08/18 01:52:19;;;;;;;;;;;21.60;54.40;;;;;;485056;246;1096;-74
2022/08/18 01:54:20;;;;;;;;;;;21.50;54.50;;;;;;485101;246;1238;-74
2022/08/18 01:56:21;;;;;;;;;;;21.60;54.50;;;;;;484960;246;2195;-74
2022/08/18 01:58:26;;;;;;;;;;;21.60;54.30;;;;;;484958;246;1139;-74
2022/08/18 02:00:25;;;;;;;;;;;21.60;54.50;;;;;;484839;246;1473;-74
2022/08/18 02:02:26;;;;;;;;;;;21.60;54.30;;;;;;485022;246;1444;-74
2022/08/18 02:04:27;;;;;;;;;;;21.60;54.30;;;;;;485127;246;1215;-74
2022/08/18 02:06:28;;;;;;;;;;;21.60;54.20;;;;;;485124;246;1159;-74
2022/08/18 02:08:30;;;;;;;;;;;21.60;54.10;;;;;;485124;246;1043;-74
2022/08/18 02:10:31;;;;;;;;;;;21.60;54.10;;;;;;485098;246;1310;-74
2022/08/18 02:12:32;;;;;;;;;;;21.50;54.00;;;;;;485015;246;1087;-74
2022/08/18 02:14:33;;;;;;;;;;;21.50;54.20;;;;;;485060;246;1053;-74
2022/08/18 02:16:35;;;;;;;;;;;21.40;54.30;;;;;;485068;246;2164;-74
2022/08/18 02:18:36;;;;;;;;;;;21.40;54.50;;;;;;485148;246;1271;-74
2022/08/18 02:20:37;;;;;;;;;;;21.50;54.30;;;;;;485105;246;1156;-74
2022/08/18 02:22:39;;;;;;;;;;;21.40;54.30;;;;;;485062;246;1097;-74
2022/08/18 02:24:40;;;;;;;;;;;21.50;54.20;;;;;;485115;246;1227;-74
2022/08/18 02:26:42;;;;;;;;;;;21.50;54.20;;;;;;485057;246;1104;-74
2022/08/18 02:28:43;;;;;;;;;;;21.40;54.20;;;;;;485141;246;1142;-74
2022/08/18 02:30:44;;;;;;;;;;;21.50;54.20;;;;;;485048;246;1098;-74
2022/08/18 02:32:46;;;;;;;;;;;21.40;54.20;;;;;;484975;246;1073;-74
2022/08/18 02:34:47;;;;;;;;;;;21.50;54.30;;;;;;484959;246;1226;-74
2022/08/18 02:36:48;;;;;;;;;;;21.50;54.20;;;;;;484992;246;2148;-74
2022/08/18 02:38:50;;;;;;;;;;;21.50;54.20;;;;;;484979;246;1178;-74
2022/08/18 02:40:51;;;;;;;;;;;21.50;54.10;;;;;;485040;246;1042;-74
2022/08/18 02:42:53;;;;;;;;;;;21.60;54.00;;;;;;484999;246;1179;-74
2022/08/18 02:44:54;;;;;;;;;;;21.50;54.20;;;;;;485022;246;1173;-74
2022/08/18 02:46:55;;;;;;;;;;;21.40;54.40;;;;;;485038;246;1242;-74
2022/08/18 02:48:57;;;;;;;;;;;21.30;54.60;;;;;;485049;246;1051;-74
2022/08/18 02:50:58;;;;;;;;;;;21.40;54.60;;;;;;485006;246;1128;-74
2022/08/18 02:52:59;;;;;;;;;;;21.40;54.50;;;;;;485099;246;1312;-74
2022/08/18 02:55:01;;;;;;;;;;;21.30;54.50;;;;;;485047;246;1187;-74
2022/08/18 02:57:02;;;;;;;;;;;21.40;54.40;;;;;;485050;246;2188;-74
2022/08/18 02:59:03;;;;;;;;;;;21.50;54.30;;;;;;485131;246;1048;-74
2022/08/18 03:01:05;;;;;;;;;;;21.50;54.30;;;;;;485088;246;1152;-74
2022/08/18 03:03:06;;;;;;;;;;;21.50;54.40;;;;;;484985;246;1166;-74
2022/08/18 03:05:08;;;;;;;;;;;21.50;54.20;;;;;;485077;246;1191;-74
2022/08/18 03:07:09;;;;;;;;;;;21.50;54.10;;;;;;485021;246;1150;-74
2022/08/18 03:09:10;;;;;;;;;;;21.50;54.10;;;;;;485060;246;1082;-74
2022/08/18 03:11:12;;;;;;;;;;;21.50;54.00;;;;;;485030;246;1268;-74
2022/08/18 03:13:13;;;;;;;;;;;21.60;53.90;;;;;;485154;246;1068;-74
2022/08/18 03:15:14;;;;;;;;;;;21.60;53.90;;;;;;485162;246;1066;-74
2022/08/18 03:17:16;;;;;;;;;;;21.50;54.10;;;;;;484936;246;2168;-74
2022/08/18 03:19:17;;;;;;;;;;;21.40;54.20;;;;;;484981;246;1088;-74
2022/08/18 03:21:20;;;;;;;;;;;21.40;54.30;;;;;;485079;246;1224;-74
2022/08/18 03:23:20;;;;;;;;;;;21.40;54.40;;;;;;485015;246;1400;-74
2022/08/18 03:25:21;;;;;;;;;;;21.40;54.40;;;;;;485061;246;1090;-74
2022/08/18 03:27:22;;;;;;;;;;;21.40;54.40;;;;;;485076;246;1172;-74
2022/08/18 03:29:24;;;;;;;;;;;21.40;54.30;;;;;;485071;246;1047;-74
2022/08/18 03:31:25;;;;;;;;;;;21.50;54.20;;;;;;485028;246;1107;-74
2022/08/18 03:33:26;;;;;;;;;;;21.30;54.30;;;;;;485023;246;1012;-74
2022/08/18 03:35:29;;;;;;;;;;;21.40;54.40;;;;;;484972;246;1177;-74
2022/08/18 03:37:29;;;;;;;;;;;21.30;54.50;;;;;;484851;246;2207;-74
2022/08/18 03:39:30;;;;;;;;;;;21.30;54.50;;;;;;485028;246;1020;-74
2022/08/18 03:41:32;;;;;;;;;;;21.30;54.60;;;;;;485122;246;1151;-74
2022/08/18 03:43:33;;;;;;;;;;;21.30;54.60;;;;;;485076;246;1116;-74
2022/08/18 03:45:34;;;;;;;;;;;21.40;54.50;;;;;;485109;246;1183;-74
2022/08/18 03:47:36;;;;;;;;;;;21.40;54.40;;;;;;485003;246;1095;-74
2022/08/18 03:49:37;;;;;;;;;;;21.40;54.50;;;;;;485042;246;1424;-74
2022/08/18 03:51:38;;;;;;;;;;;21.30;54.40;;;;;;484941;246;1083;-74
2022/08/18 03:53:40;;;;;;;;;;;21.30;54.50;;;;;;485032;246;1135;-74
2022/08/18 03:55:41;;;;;;;;;;;21.20;54.60;;;;;;484989;246;1165;-74
2022/08/18 03:57:42;;;;;;;;;;;21.20;54.80;;;;;;484945;246;2159;-74
2022/08/18 03:59:44;;;;;;;;;;;21.20;54.80;;;;;;484899;246;1084;-74
2022/08/18 04:01:45;;;;;;;;;;;21.20;54.70;;;;;;485012;246;1189;-74
2022/08/18 04:03:46;;;;;;;;;;;21.30;54.50;;;;;;485088;246;1184;-74
2022/08/18 04:05:48;;;;;;;;;;;21.20;54.40;;;;;;485037;246;1172;-74
2022/08/18 04:07:49;;;;;;;;;;;21.30;54.40;;;;;;484921;246;1083;-74
2022/08/18 04:09:51;;;;;;;;;;;21.20;54.40;;;;;;484959;246;1056;-74
2022/08/18 04:11:52;;;;;;;;;;;21.20;54.40;;;;;;484986;246;1122;-74
2022/08/18 04:13:53;;;;;;;;;;;21.20;54.50;;;;;;485043;246;1073;-74
2022/08/18 04:15:54;;;;;;;;;;;21.20;54.50;;;;;;484951;246;1108;-74
2022/08/18 04:17:56;;;;;;;;;;;21.20;54.30;;;;;;484850;246;2151;-74
2022/08/18 04:19:57;;;;;;;;;;;21.20;54.30;;;;;;484900;246;1085;-74
2022/08/18 04:21:58;;;;;;;;;;;21.20;54.40;;;;;;484983;246;1139;-74
2022/08/18 04:24:03;;;;;;;;;;;21.10;54.30;;;;;;484991;246;1078;-74
2022/08/18 04:26:02;;;;;;;;;;;21.20;54.30;;;;;;484793;246;1439;-73
2022/08/18 04:28:03;;;;;;;;;;;21.20;54.30;;;;;;485021;246;1342;-73
2022/08/18 04:30:04;;;;;;;;;;;21.10;54.30;;;;;;484995;246;1038;-73
2022/08/18 04:32:06;;;;;;;;;;;21.20;54.50;;;;;;484943;246;1063;-74
2022/08/18 04:34:07;;;;;;;;;;;21.20;54.20;;;;;;484965;246;1022;-74
2022/08/18 04:36:09;;;;;;;;;;;21.20;54.30;;;;;;484998;246;1009;-74
2022/08/18 04:38:10;;;;;;;;;;;21.20;54.40;;;;;;484949;246;2195;-74
2022/08/18 04:40:13;;;;;;;;;;;21.20;54.40;;;;;;484983;246;1056;-74
2022/08/18 04:42:13;;;;;;;;;;;21.20;54.40;;;;;;484785;246;1419;-74
2022/08/18 04:44:16;;;;;;;;;;;21.20;54.50;;;;;;484930;246;1027;-74
2022/08/18 04:46:16;;;;;;;;;;;21.20;54.50;;;;;;484755;246;1430;-74
2022/08/18 04:48:17;;;;;;;;;;;21.10;54.60;;;;;;484861;246;992;-74
2022/08/18 04:50:19;;;;;;;;;;;21.00;54.80;;;;;;484965;246;1092;-74
2022/08/18 04:54:40;;;;;;;;;;;21.10;54.70;;;;;;484870;246;1090;-74
2022/08/18 04:56:41;;;;;;;;;;;21.20;54.70;;;;;;484836;246;1150;-74
2022/08/18 04:58:42;;;;;;;;;;;21.10;54.60;;;;;;484883;246;2203;-74
2022/08/18 05:56:45;;;;;;;;;;;21.30;54.50;;;;;;485266;246;1077;-74
2022/08/18 05:58:19;;;;;;;;;;;21.30;54.60;;;;;;482701;247;2141;-74
2022/08/18 06:00:39;;;;;;;;;;;21.30;54.60;;;;;;484622;246;2140;-74
2022/08/18 06:02:58;;;;;;;;;;;21.30;54.40;;;;;;484276;246;2121;-74
2022/08/18 06:05:17;;;;;;;;;;;21.40;54.20;;;;;;484298;246;2255;-74
2022/08/18 06:07:36;;;;;;;;;;;21.30;54.20;;;;;;484390;246;1129;-74
2022/08/18 06:09:56;;;;;;;;;;;21.30;54.40;;;;;;483787;246;2144;-74
2022/08/18 06:12:16;;;;;;;;;;;21.30;54.40;;;;;;484243;246;2235;-74
2022/08/18 06:14:35;;;;;;;;;;;21.30;54.40;;;;;;484268;246;2129;-74
2022/08/18 06:16:54;;;;;;;;;;;21.30;54.40;;;;;;483837;246;1171;-74
2022/08/18 06:19:14;;;;;;;;;;;21.30;54.60;;;;;;484075;246;2153;-74
2022/08/18 06:21:34;;;;;;;;;;;21.20;54.60;;;;;;484265;246;2088;-74
2022/08/18 06:23:53;;;;;;;;;;;21.20;54.80;;;;;;484032;246;1183;-74
2022/08/18 06:26:13;;;;;;;;;;;21.20;54.70;;;;;;484291;246;2270;-74
2022/08/18 06:28:32;;;;;;;;;;;21.10;55.10;;;;;;484274;246;2128;-74
2022/08/18 06:30:52;;;;;;;;;;;21.10;55.10;;;;;;484224;246;2346;-74
2022/08/18 06:33:11;;;;;;;;;;;21.20;54.90;;;;;;483693;246;2144;-74
2022/08/18 06:35:32;;;;;;;;;;;21.20;55.00;;;;;;482323;246;2244;-74
2022/08/18 06:40:28;;;;;;;;;;;21.30;54.80;;;;;;482329;247;1161;-74
2022/08/18 06:42:48;;;;;;;;;;;21.20;54.90;;;;;;482206;247;1243;-74
2022/08/18 06:45:10;;;;;;;;;;;21.40;54.90;;;;;;482126;247;2149;-74
2022/08/18 06:47:27;;;;;;;;;;;21.30;54.90;;;;;;482235;247;1341;-74
2022/08/18 06:49:47;;;;;;;;;;;21.30;55.00;;;;;;484350;246;1072;-74
2022/08/18 06:52:05;;;;;;;;;;;21.30;55.10;;;;;;476474;248;2138;-74
2022/08/18 06:54:25;;;;;;;;;;;21.30;55.00;;;;;;473240;251;2136;-74
2022/08/18 06:56:44;;;;;;;;;;;21.30;55.10;;;;;;473177;250;1144;-74
2022/08/18 06:59:04;;;;;;;;;;;21.30;55.10;;;;;;473191;250;2135;-74
2022/08/18 07:01:23;;;;;;;;;;;21.30;55.10;;;;;;473169;250;2129;-74
2022/08/18 07:03:43;;;;;;;;;;;21.40;55.00;;;;;;473317;250;2140;-74
2022/08/18 07:06:02;;;;;;;;;;;21.40;55.00;;;;;;473185;250;2127;-74
2022/08/18 07:08:21;;;;;;;;;;;21.40;55.10;;;;;;473077;251;1624;-74
2022/08/18 07:10:41;;;;;;;;;;;21.40;55.20;;;;;;473276;250;2333;-74
2022/08/18 07:13:00;;;;;;;;;;;21.40;55.00;;;;;;473306;251;1176;-74
2022/08/18 07:15:20;;;;;;;;;;;21.40;54.90;;;;;;483622;246;3392;-74
2022/08/18 07:17:41;;;;;;;;;;;21.50;54.90;;;;;;484084;242;1440;-74
2022/08/18 07:19:59;;;;;;;;;;;21.40;54.90;;;;;;484179;246;2104;-74
2022/08/18 07:22:18;;;;;;;;;;;21.50;55.00;;;;;;484127;246;2366;-74
2022/08/18 07:24:38;;;;;;;;;;;21.50;55.00;;;;;;483765;246;2109;-74
2022/08/18 07:26:57;;;;;;;;;;;21.40;55.20;;;;;;484082;246;2153;-74
2022/08/18 07:29:17;;;;;;;;;;;21.40;55.30;;;;;;484108;246;2108;-74
2022/08/18 07:31:36;;;;;;;;;;;21.50;55.20;;;;;;483846;246;2089;-74
2022/08/18 07:33:56;;;;;;;;;;;21.50;55.00;;;;;;484110;246;2144;-74
2022/08/18 07:36:16;;;;;;;;;;;21.50;55.00;;;;;;484179;246;1112;-74
2022/08/18 07:38:35;;;;;;;;;;;21.50;54.90;;;;;;483554;246;2356;-74
2022/08/18 07:40:54;;;;;;;;;;;21.50;54.90;;;;;;476111;250;2084;-74
2022/08/18 07:43:14;;;;;;;;;;;21.50;55.00;;;;;;476737;250;1172;-74
2022/08/18 07:45:33;;;;;;;;;;;21.50;55.00;;;;;;483689;246;2144;-74
2022/08/18 07:47:53;;;;;;;;;;;21.50;55.00;;;;;;483536;246;2337;-74
2022/08/18 07:50:12;;;;;;;;;;;21.50;55.00;;;;;;483268;247;2361;-74
2022/08/18 07:52:32;;;;;;;;;;;21.60;54.90;;;;;;484008;246;2113;-74
2022/08/18 07:54:51;;;;;;;;;;;21.60;54.70;;;;;;483836;246;1286;-74
2022/08/18 07:57:10;;;;;;;;;;;21.60;54.60;;;;;;483998;246;1100;-74
2022/08/18 07:59:30;;;;;;;;;;;21.60;54.60;;;;;;484032;246;2098;-73
2022/08/18 08:01:50;;;;;;;;;;;21.60;54.70;;;;;;483601;246;2255;-73
2022/08/18 08:04:09;;;;;;;;;;;21.60;54.50;;;;;;483526;246;2377;-73
2022/08/18 08:06:29;;;;;;;;;;;21.60;54.50;;;;;;483841;246;2108;-73
2022/08/18 08:08:49;;;;;;;;;;;21.60;54.50;;;;;;484013;246;2099;-74
2022/08/18 08:11:08;;;;;;;;;;;21.70;54.50;;;;;;483655;246;1104;-73
2022/08/18 08:13:28;;;;;;;;;;;21.80;54.40;;;;;;484124;246;2141;-74
2022/08/18 08:15:48;;;;;;;;;;;21.80;54.30;;;;;;483938;246;1277;-73
2022/08/18 08:18:08;;;;;;;;;;;21.70;54.50;;;;;;483953;246;2160;-74
2022/08/18 08:20:27;;;;;;;;;;;21.70;54.70;;;;;;484032;246;2113;-74
2022/08/18 08:22:47;;;;;;;;;;;21.70;54.70;;;;;;484077;246;2317;-74
2022/08/18 08:25:06;;;;;;;;;;;21.70;54.70;;;;;;483784;246;2137;-74
2022/08/18 08:27:25;;;;;;;;;;;21.70;54.60;;;;;;484127;246;1434;-74
2022/08/18 08:29:45;;;;;;;;;;;21.80;54.50;;;;;;484089;246;2093;-74
2022/08/18 08:32:05;;;;;;;;;;;21.80;54.40;;;;;;484045;246;2325;-74
2022/08/18 08:34:24;;;;;;;;;;;21.80;54.60;;;;;;483558;246;2105;-74
2022/08/18 08:36:44;;;;;;;;;;;21.80;54.70;;;;;;484026;246;1159;-74
2022/08/18 08:39:04;;;;;;;;;;;21.70;54.80;;;;;;484009;246;2157;-74
2022/08/18 08:41:24;;;;;;;;;;;21.70;54.90;;;;;;483624;246;1191;-74
2022/08/18 08:43:42;;;;;;;;;;;21.60;55.00;;;;;;484091;246;2132;-74
2022/08/18 08:46:02;;;;;;;;;;;21.70;55.10;;;;;;484116;246;2140;-74
2022/08/18 08:48:21;;;;;;;;;;;21.70;55.00;;;;;;483502;246;2239;-74
2022/08/18 08:50:40;;;;;;;;;;;21.80;54.80;;;;;;483444;247;2231;-74
2022/08/18 08:53:00;;;;;;;;;;;21.70;54.70;;;;;;483604;246;2106;-74
2022/08/18 08:55:24;;;;;;;;;;;21.70;54.90;;;;;;483937;246;1100;-74
2022/08/18 08:57:40;;;;;;;;;;;21.60;55.00;;;;;;481601;246;2136;-74
2022/08/18 09:00:01;;;;;;;;;;;21.70;55.00;;;;;;481669;247;2145;-74
2022/08/18 09:02:19;;;;;;;;;;;21.70;55.00;;;;;;482084;247;1123;-74
2022/08/18 09:04:39;;;;;;;;;;;21.60;54.90;;;;;;482121;247;1124;-74
2022/08/18 09:06:58;;;;;;;;;;;21.80;54.90;;;;;;482072;247;2065;-74
2022/08/18 09:09:18;;;;;;;;;;;21.80;54.80;;;;;;482088;247;2268;-74
2022/08/18 09:11:38;;;;;;;;;;;21.80;54.80;;;;;;481976;247;2134;-74
2022/08/18 09:13:56;;;;;;;;;;;21.80;54.90;;;;;;484036;246;2419;-74
2022/08/18 09:16:16;;;;;;;;;;;21.70;55.00;;;;;;484011;246;1297;-74
2022/08/18 09:18:35;;;;;;;;;;;21.70;55.00;;;;;;483983;246;2319;-74
2022/08/18 09:20:55;;;;;;;;;;;21.70;55.10;;;;;;484002;246;2259;-74
2022/08/18 09:23:16;;;;;;;;;;;21.70;55.20;;;;;;484070;246;1147;-74
2022/08/18 09:25:34;;;;;;;;;;;21.70;55.20;;;;;;484073;246;2246;-75
2022/08/18 09:27:54;;;;;;;;;;;21.70;55.10;;;;;;484087;246;2124;-74
2022/08/18 09:30:13;;;;;;;;;;;21.70;55.10;;;;;;483925;246;2109;-74
2022/08/18 09:32:33;;;;;;;;;;;21.80;55.00;;;;;;484037;246;2105;-74
2022/08/18 09:34:52;;;;;;;;;;;21.70;55.10;;;;;;484015;246;1086;-74
2022/08/18 09:36:53;;;;;;;;;;;21.80;55.10;;;;;;484136;246;1171;-74
2022/08/18 09:41:32;;;;;;;;;;;21.90;55.00;;;;;;484132;245;1115;-74
2022/08/18 09:43:33;;;;;;;;;;;22.00;54.60;;;;;;484090;246;1115;-74
2022/08/18 09:45:34;;;;;;;;;;;22.00;54.50;;;;;;484121;246;1145;-74
2022/08/18 09:47:36;;;;;;;;;;;21.90;54.50;;;;;;484008;246;1138;-74
2022/08/18 09:49:37;;;;;;;;;;;21.90;54.70;;;;;;484100;246;1284;-74
2022/08/18 09:51:39;;;;;;;;;;;21.90;54.70;;;;;;484117;246;1163;-74
2022/08/18 09:53:40;;;;;;;;;;;21.80;54.90;;;;;;484024;246;1263;-74
2022/08/18 09:55:41;;;;;;;;;;;22.00;54.60;;;;;;484022;246;1137;-74
2022/08/18 09:57:43;;;;;;;;;;;22.00;54.60;;;;;;483996;246;1154;-74
2022/08/18 09:59:44;;;;;;;;;;;22.00;54.60;;;;;;484099;246;2180;-75
2022/08/18 10:01:46;;;;;;;;;;;21.90;54.80;;;;;;483921;246;1099;-74
2022/08/18 10:03:47;;;;;;;;;;;21.90;54.80;;;;;;484103;246;1157;-74
2022/08/18 10:05:48;;;;;;;;;;;21.90;54.80;;;;;;484108;246;1105;-74
2022/08/18 10:07:52;;;;;;;;;;;21.90;54.60;;;;;;484074;246;1204;-74
2022/08/18 10:09:51;;;;;;;;;;;21.90;54.50;;;;;;483906;246;1375;-74
2022/08/18 10:11:52;;;;;;;;;;;22.00;54.30;;;;;;484068;246;1133;-74
2022/08/18 10:13:53;;;;;;;;;;;22.10;54.00;;;;;;484102;246;1185;-74
2022/08/18 10:15:55;;;;;;;;;;;22.20;53.70;;;;;;484030;246;1164;-74
2022/08/18 10:17:56;;;;;;;;;;;22.10;53.80;;;;;;483934;246;1151;-74
2022/08/18 10:19:58;;;;;;;;;;;22.00;54.10;;;;;;483902;246;2164;-74
2022/08/18 10:22:00;;;;;;;;;;;21.90;54.40;;;;;;484028;246;1199;-74
2022/08/18 10:24:00;;;;;;;;;;;21.80;54.40;;;;;;483855;246;1583;-74
2022/08/18 10:26:02;;;;;;;;;;;21.80;54.40;;;;;;484003;246;1274;-74
2022/08/18 10:28:04;;;;;;;;;;;21.80;54.50;;;;;;484017;246;1203;-74
2022/08/18 10:30:04;;;;;;;;;;;21.70;54.70;;;;;;484015;246;1336;-74
2022/08/18 10:32:07;;;;;;;;;;;21.80;54.80;;;;;;484098;246;1175;-74
2022/08/18 10:34:08;;;;;;;;;;;21.70;54.90;;;;;;483916;246;1231;-74
2022/08/18 10:36:09;;;;;;;;;;;21.80;55.10;;;;;;483931;246;1424;-74
2022/08/18 10:38:10;;;;;;;;;;;21.80;54.90;;;;;;483981;246;1173;-74
2022/08/18 10:40:12;;;;;;;;;;;21.80;55.00;;;;;;484019;246;2140;-74
2022/08/18 10:42:13;;;;;;;;;;;21.80;54.90;;;;;;484092;246;1164;-74
2022/08/18 10:44:15;;;;;;;;;;;21.80;54.70;;;;;;484073;246;1128;-74
2022/08/18 10:46:15;;;;;;;;;;;21.90;54.70;;;;;;483942;246;1358;-74
2022/08/18 10:48:17;;;;;;;;;;;21.90;54.70;;;;;;483975;246;1241;-74
2022/08/18 10:50:18;;;;;;;;;;;21.80;54.80;;;;;;484019;246;1094;-74
2022/08/18 10:52:19;;;;;;;;;;;21.90;54.80;;;;;;483958;246;1153;-74
2022/08/18 10:54:21;;;;;;;;;;;22.00;54.40;;;;;;484058;246;1181;-74
2022/08/18 10:56:22;;;;;;;;;;;22.10;54.10;;;;;;484002;246;1128;-74
2022/08/18 10:58:23;;;;;;;;;;;22.10;54.30;;;;;;484027;246;1177;-74
2022/08/18 11:00:25;;;;;;;;;;;22.00;54.40;;;;;;484052;246;2113;-74
2022/08/18 11:02:26;;;;;;;;;;;22.00;54.50;;;;;;484057;246;1432;-74
2022/08/18 11:04:27;;;;;;;;;;;22.00;54.60;;;;;;484103;246;1171;-74
2022/08/18 11:06:29;;;;;;;;;;;21.90;54.60;;;;;;484091;246;1160;-74
2022/08/18 11:08:30;;;;;;;;;;;21.80;54.70;;;;;;483998;246;1171;-74
2022/08/18 11:10:31;;;;;;;;;;;21.80;55.00;;;;;;483954;246;1099;-75
2022/08/18 11:12:33;;;;;;;;;;;21.80;55.10;;;;;;484002;246;1150;-74
2022/08/18 11:14:34;;;;;;;;;;;21.70;55.20;;;;;;483998;246;1109;-74
2022/08/18 11:16:35;;;;;;;;;;;21.60;55.40;;;;;;483984;246;1115;-74
2022/08/18 11:18:37;;;;;;;;;;;21.60;55.40;;;;;;484038;246;1100;-75
2022/08/18 11:20:39;;;;;;;;;;;21.70;55.30;;;;;;483955;246;2113;-74
2022/08/18 11:22:40;;;;;;;;;;;21.60;55.40;;;;;;483946;246;1399;-74
2022/08/18 11:24:41;;;;;;;;;;;21.60;55.50;;;;;;484012;246;1138;-74
2022/08/18 11:26:42;;;;;;;;;;;21.60;55.50;;;;;;484160;246;1053;-74
2022/08/18 11:28:44;;;;;;;;;;;21.60;55.60;;;;;;483990;246;1205;-74
2022/08/18 11:30:45;;;;;;;;;;;21.70;55.50;;;;;;484029;246;1037;-74
2022/08/18 11:32:46;;;;;;;;;;;21.70;55.50;;;;;;484032;246;1157;-74
2022/08/18 11:34:48;;;;;;;;;;;21.60;55.40;;;;;;484018;246;1220;-74
2022/08/18 11:36:49;;;;;;;;;;;21.70;55.30;;;;;;483967;246;1125;-74
2022/08/18 11:38:50;;;;;;;;;;;21.70;55.30;;;;;;483981;246;1117;-74
2022/08/18 11:40:53;;;;;;;;;;;21.70;55.40;;;;;;484026;246;2198;-74
2022/08/18 11:42:53;;;;;;;;;;;21.60;55.40;;;;;;484037;246;1382;-74
2022/08/18 11:44:54;;;;;;;;;;;21.60;55.60;;;;;;483994;246;1083;-74
2022/08/18 11:46:56;;;;;;;;;;;21.60;55.70;;;;;;484068;246;1133;-74
2022/08/18 11:48:57;;;;;;;;;;;21.50;55.90;;;;;;484061;246;1082;-74
2022/08/18 11:51:00;;;;;;;;;;;21.50;56.00;;;;;;484060;246;1091;-74
2022/08/18 11:53:00;;;;;;;;;;;21.50;56.00;;;;;;484062;246;1434;-74
2022/08/18 11:55:01;;;;;;;;;;;21.50;56.00;;;;;;484053;246;1252;-74
2022/08/18 11:57:03;;;;;;;;;;;21.50;55.90;;;;;;484034;246;1107;-74
2022/08/18 11:59:04;;;;;;;;;;;21.60;55.70;;;;;;484057;246;2161;-74
2022/08/18 12:01:07;;;;;;;;;;;21.70;55.40;;;;;;484026;246;1059;-74
2022/08/18 12:03:08;;;;;;;;;;;21.70;55.50;;;;;;484068;246;1488;-74
2022/08/18 12:05:09;;;;;;;;;;;21.70;55.40;;;;;;484000;246;1050;-74
2022/08/18 12:07:10;;;;;;;;;;;21.70;55.40;;;;;;484060;246;1219;-74
2022/08/18 12:09:12;;;;;;;;;;;21.80;55.40;;;;;;484013;246;1118;-75
2022/08/18 12:11:13;;;;;;;;;;;21.80;55.30;;;;;;484121;246;1139;-74
2022/08/18 12:13:14;;;;;;;;;;;21.80;55.20;;;;;;483976;246;1087;-74
2022/08/18 12:15:16;;;;;;;;;;;21.80;55.20;;;;;;484087;246;1155;-74
2022/08/18 12:17:17;;;;;;;;;;;21.80;55.30;;;;;;483976;246;1238;-74
2022/08/18 12:19:18;;;;;;;;;;;21.80;55.30;;;;;;484108;246;2196;-74
2022/08/18 12:21:20;;;;;;;;;;;21.80;55.20;;;;;;483966;246;1048;-74
2022/08/18 12:23:21;;;;;;;;;;;21.80;55.20;;;;;;483938;246;1158;-74
2022/08/18 12:25:22;;;;;;;;;;;21.80;55.20;;;;;;483974;246;1191;-74
2022/08/18 12:27:24;;;;;;;;;;;21.80;55.10;;;;;;484012;246;1071;-74
2022/08/18 12:29:25;;;;;;;;;;;21.80;55.10;;;;;;483868;246;1180;-74
2022/08/18 12:31:26;;;;;;;;;;;21.90;54.90;;;;;;484027;246;1111;-74
2022/08/18 12:33:28;;;;;;;;;;;21.90;55.10;;;;;;484041;246;1107;-74
2022/08/18 12:35:29;;;;;;;;;;;21.80;55.20;;;;;;484026;246;1093;-74
2022/08/18 12:37:30;;;;;;;;;;;21.70;55.20;;;;;;484016;246;1045;-74
2022/08/18 12:39:32;;;;;;;;;;;21.80;55.30;;;;;;484008;246;2144;-74
2022/08/18 12:41:33;;;;;;;;;;;21.90;55.20;;;;;;483965;246;1075;-74
2022/08/18 12:43:34;;;;;;;;;;;21.90;55.20;;;;;;483926;246;1076;-74
2022/08/18 12:45:36;;;;;;;;;;;22.00;55.00;;;;;;483930;246;1094;-74
2022/08/18 12:47:37;;;;;;;;;;;21.90;54.90;;;;;;483934;246;1179;-74
2022/08/18 12:49:38;;;;;;;;;;;21.90;54.80;;;;;;483964;246;1161;-74
2022/08/18 12:51:40;;;;;;;;;;;21.90;54.70;;;;;;483999;246;1330;-74
2022/08/18 12:53:41;;;;;;;;;;;21.90;54.60;;;;;;483774;246;1110;-74
2022/08/18 12:55:42;;;;;;;;;;;21.90;54.70;;;;;;483828;246;1168;-74
2022/08/18 12:57:44;;;;;;;;;;;21.80;54.80;;;;;;484087;246;1083;-74
2022/08/18 12:59:45;;;;;;;;;;;21.80;54.80;;;;;;483994;246;2157;-74
2022/08/18 13:01:46;;;;;;;;;;;21.80;54.80;;;;;;483937;246;1162;-74
2022/08/18 13:03:48;;;;;;;;;;;21.80;54.80;;;;;;484034;246;1249;-74
2022/08/18 13:05:49;;;;;;;;;;;21.80;54.90;;;;;;483947;246;1202;-74
2022/08/18 13:07:50;;;;;;;;;;;21.80;54.90;;;;;;483873;246;1199;-74
2022/08/18 13:09:52;;;;;;;;;;;21.80;55.00;;;;;;483981;246;1063;-74
2022/08/18 13:11:53;;;;;;;;;;;21.80;55.10;;;;;;484100;246;1126;-74
2022/08/18 13:13:55;;;;;;;;;;;21.80;55.00;;;;;;483990;246;1153;-75
2022/08/18 13:15:56;;;;;;;;;;;21.80;55.00;;;;;;483979;246;1115;-74
2022/08/18 13:17:57;;;;;;;;;;;21.90;54.90;;;;;;484010;246;1174;-74
2022/08/18 13:19:59;;;;;;;;;;;22.00;54.90;;;;;;484020;246;2155;-74
2022/08/18 13:22:00;;;;;;;;;;;21.90;54.80;;;;;;484077;246;1209;-74
2022/08/18 13:24:01;;;;;;;;;;;21.90;54.80;;;;;;483932;246;1116;-74
2022/08/18 13:26:03;;;;;;;;;;;21.90;54.80;;;;;;483989;246;1058;-74
2022/08/18 13:28:04;;;;;;;;;;;21.90;54.80;;;;;;483967;246;1285;-74
2022/08/18 13:30:05;;;;;;;;;;;21.90;54.90;;;;;;483977;246;1159;-74
2022/08/18 13:32:08;;;;;;;;;;;21.90;54.90;;;;;;483956;246;1223;-74